createdAt,value
2023-02-09T02:03:25.187Z,30.03
2023-02-09T02:04:25.228Z,27.69
2023-02-09T02:05:25.275Z,25.00
2023-02-09T02:06:25.304Z,28.72
2023-02-09T02:07:25.353Z,27.54
2023-02-09T02:08:25.398Z,28.57
2023-02-09T02:09:25.433Z,29.42
2023-02-09T02:10:25.475Z,31.00
2023-02-09T02:11:25.509Z,29.62
2023-02-09T02:12:25.553Z,28.44
2023-02-09T02:13:25.595Z,27.80
2023-02-09T02:14:25.626Z,30.93
2023-02-09T02:15:25.751Z,28.19
2023-02-09T02:16:25.713Z,27.67
2023-02-09T02:17:25.747Z,29.70
2023-02-09T02:18:25.804Z,28.44
2023-02-09T02:19:25.830Z,26.80
2023-02-09T02:20:25.872Z,28.95
2023-02-09T02:21:25.915Z,28.19
2023-02-09T02:22:25.950Z,29.65
2023-02-09T02:23:26.001Z,28.70
2023-02-09T02:24:26.024Z,29.04
2023-02-09T02:25:26.064Z,27.46
2023-02-09T02:26:26.107Z,30.36
2023-02-09T02:27:26.140Z,26.07
2023-02-09T02:28:26.235Z,29.28
2023-02-09T02:29:26.216Z,30.21
2023-02-09T02:30:26.280Z,33.52
2023-02-09T02:31:26.383Z,30.57
2023-02-09T02:32:26.337Z,32.22
2023-02-09T02:33:26.412Z,33.05
2023-02-09T02:34:26.427Z,30.44
2023-02-09T02:35:26.466Z,30.40
2023-02-09T02:36:26.505Z,30.47
2023-02-09T02:37:26.547Z,32.04
2023-02-09T02:38:26.589Z,29.41
2023-02-09T02:39:26.636Z,30.25
2023-02-09T02:40:26.668Z,30.61
2023-02-09T02:41:26.719Z,27.56
2023-02-09T02:42:26.776Z,29.38
2023-02-09T02:43:26.799Z,28.41
2023-02-09T02:44:26.828Z,29.14
2023-02-09T02:45:26.881Z,30.43
2023-02-09T02:46:27.007Z,30.63
2023-02-09T02:47:26.960Z,29.84
2023-02-09T02:48:27.000Z,30.41
2023-02-09T02:49:27.071Z,30.38
2023-02-09T02:50:27.171Z,29.41
2023-02-09T02:51:27.143Z,29.53
2023-02-09T02:52:27.167Z,30.62
2023-02-09T02:53:27.213Z,31.03
2023-02-09T02:54:27.243Z,28.95
2023-02-09T02:55:27.296Z,30.20
2023-02-09T02:56:27.321Z,29.88
2023-02-09T02:57:27.374Z,29.03
2023-02-09T02:58:27.420Z,28.54
2023-02-09T02:59:27.463Z,27.77
2023-02-09T03:00:27.503Z,27.86
2023-02-09T03:01:27.599Z,28.55
2023-02-09T03:02:27.584Z,30.61
2023-02-09T03:03:27.614Z,27.05
2023-02-09T03:04:27.660Z,28.02
2023-02-09T03:05:27.933Z,29.31
2023-02-09T03:06:27.733Z,30.23
2023-02-09T03:07:27.773Z,29.08
2023-02-09T03:08:27.828Z,28.50
2023-02-09T03:09:27.864Z,29.54
2023-02-09T03:10:27.901Z,28.49
2023-02-09T03:11:27.957Z,28.36
2023-02-09T03:12:27.975Z,31.80
2023-02-09T03:13:28.015Z,28.65
2023-02-09T03:14:28.075Z,29.31
2023-02-09T03:15:28.105Z,27.62
2023-02-09T03:16:28.234Z,26.07
2023-02-09T03:17:28.195Z,29.00
2023-02-09T03:18:28.238Z,28.89
2023-02-09T03:19:28.277Z,30.54
2023-02-09T03:20:28.323Z,28.19
2023-02-09T03:21:28.358Z,30.03
2023-02-09T03:22:28.405Z,29.18
2023-02-09T03:23:28.459Z,27.59
2023-02-09T03:24:28.492Z,29.08
2023-02-09T03:25:28.517Z,29.65
2023-02-09T03:26:28.570Z,27.27
2023-02-09T03:27:28.606Z,29.39
2023-02-09T03:28:28.729Z,27.33
2023-02-09T03:29:28.694Z,27.00
2023-02-09T06:15:35.226Z,30.63
2023-02-09T06:16:35.207Z,28.61
2023-02-09T06:17:35.257Z,30.26
2023-02-09T06:18:35.265Z,30.84
2023-02-09T06:19:35.300Z,29.52
2023-02-09T06:20:35.326Z,28.73
2023-02-09T06:21:35.367Z,31.79
2023-02-09T06:22:35.402Z,26.77
2023-02-09T06:23:35.518Z,29.20
2023-02-09T06:24:35.463Z,32.20
2023-02-09T06:25:35.489Z,31.01
2023-02-09T06:26:35.560Z,27.97
2023-02-09T06:27:35.576Z,30.71
2023-02-09T06:28:35.601Z,31.71
2023-02-09T06:29:35.641Z,32.86
2023-02-09T06:30:35.676Z,34.50
2023-02-09T06:31:35.810Z,32.61
2023-02-09T06:32:35.744Z,31.79
2023-02-09T06:33:35.776Z,33.86
2023-02-09T06:34:35.810Z,35.45
2023-02-09T06:35:35.849Z,36.16
2023-02-09T06:36:35.890Z,38.48
2023-02-09T06:37:35.886Z,41.72
2023-02-09T06:39:35.950Z,43.66
2023-02-09T06:40:35.995Z,43.07
2023-02-09T06:41:36.019Z,45.61
2023-02-09T06:42:36.047Z,46.08
2023-02-09T06:44:36.113Z,43.40
2023-02-09T06:45:36.138Z,42.72
2023-02-09T06:46:36.197Z,44.36
2023-02-09T06:47:36.210Z,45.25
2023-02-09T06:48:36.240Z,44.18
2023-02-09T06:49:36.283Z,46.71
2023-02-09T06:50:36.300Z,46.56
2023-02-09T06:51:36.340Z,46.13
2023-02-09T06:52:36.389Z,45.19
2023-02-09T06:53:36.423Z,44.10
2023-02-09T06:54:36.455Z,46.23
2023-02-09T06:55:36.479Z,45.70
2023-02-09T06:56:36.522Z,45.64
2023-02-09T06:57:36.562Z,47.12
2023-02-09T06:58:36.607Z,42.82
2023-02-09T06:59:36.620Z,47.12
2023-02-09T07:00:36.665Z,46.85
2023-02-09T07:01:36.746Z,46.43
2023-02-09T07:02:36.846Z,45.53
2023-02-09T07:03:37.583Z,43.79
2023-02-09T07:04:36.790Z,45.46
2023-02-09T07:05:36.829Z,47.13
2023-02-09T07:06:36.857Z,48.29
2023-02-09T07:07:36.887Z,49.89
2023-02-09T07:08:36.922Z,48.87
2023-02-09T07:09:37.510Z,48.59
2023-02-09T07:10:36.995Z,46.53
2023-02-09T07:11:37.029Z,47.20
2023-02-09T07:12:38.001Z,46.69
2023-02-09T07:13:37.092Z,44.45
2023-02-09T07:14:37.118Z,45.10
2023-02-09T07:15:37.191Z,45.89
2023-02-09T07:16:37.214Z,49.60
2023-02-09T07:17:37.231Z,44.92
2023-02-09T07:18:37.281Z,48.08
2023-02-09T07:19:37.320Z,47.43
2023-02-09T07:20:37.357Z,46.75
2023-02-09T07:21:37.385Z,49.31
2023-02-09T07:22:37.404Z,48.46
2023-02-09T07:23:37.441Z,44.40
2023-02-09T07:24:37.477Z,42.39
2023-02-09T07:25:37.519Z,44.17
2023-02-09T07:26:37.562Z,45.03
2023-02-09T07:27:37.579Z,46.30
2023-02-09T07:28:37.604Z,44.66
2023-02-09T07:29:37.626Z,42.66
2023-02-09T07:30:37.681Z,45.53
2023-02-09T07:31:37.769Z,48.45
2023-02-09T07:32:37.692Z,47.35
2023-02-09T07:33:37.705Z,44.41
2023-02-09T07:34:37.725Z,45.23
2023-02-09T07:35:37.762Z,42.74
2023-02-09T07:36:38.521Z,47.01
2023-02-09T07:37:37.790Z,48.65
2023-02-09T07:38:37.807Z,46.01
2023-02-09T07:39:37.903Z,43.14
2023-02-09T07:40:37.822Z,46.13
2023-02-09T07:41:37.831Z,43.77
2023-02-09T07:42:37.848Z,44.32
2023-02-09T07:43:37.868Z,45.21
2023-02-09T07:45:37.869Z,40.59
2023-02-09T07:46:37.949Z,41.02
2023-02-09T07:47:37.902Z,41.09
2023-02-09T07:48:37.924Z,43.14
2023-02-09T07:49:37.927Z,45.49
2023-02-09T07:50:37.998Z,44.31
2023-02-09T07:51:37.942Z,38.83
2023-02-09T07:52:37.959Z,43.69
2023-02-09T07:53:38.523Z,43.54
2023-02-09T07:54:37.996Z,43.32
2023-02-09T07:55:37.997Z,41.20
2023-02-09T07:56:38.033Z,44.03
2023-02-09T07:57:38.026Z,42.31
2023-02-09T07:58:38.012Z,45.43
2023-02-09T07:59:38.022Z,43.08
2023-02-09T08:00:38.020Z,41.93
2023-02-09T08:01:38.062Z,42.58
2023-02-09T08:02:38.044Z,44.64
2023-02-09T08:03:38.053Z,40.00
2023-02-09T08:04:38.113Z,40.50
2023-02-09T08:05:38.059Z,41.22
2023-02-09T08:06:42.478Z,44.02
2023-02-09T08:07:38.038Z,44.14
2023-02-09T08:08:38.019Z,44.47
2023-02-09T08:09:38.007Z,41.07
2023-02-09T08:10:38.005Z,43.73
2023-02-09T08:11:38.099Z,40.95
2023-02-09T08:12:37.955Z,42.65
2023-02-09T08:13:37.972Z,42.12
2023-02-09T08:14:37.939Z,50.01
2023-02-09T08:15:37.923Z,49.83
2023-02-09T08:16:37.957Z,47.92
2023-02-09T08:17:37.897Z,55.85
2023-02-09T08:18:37.897Z,63.21
2023-02-09T08:19:37.867Z,64.72
2023-02-09T08:20:37.844Z,67.52
2023-02-09T08:21:37.834Z,72.20
2023-02-09T08:22:38.532Z,24.68
2023-02-09T08:23:40.315Z,0.00
2023-02-09T08:24:37.981Z,6.03
2023-02-09T08:25:37.982Z,25.00
2023-02-09T08:26:38.049Z,38.46
2023-02-09T08:27:38.089Z,48.74
2023-02-09T08:28:44.118Z,51.82
2023-02-09T08:29:40.039Z,52.17
2023-02-09T08:30:39.199Z,54.86
2023-02-09T08:31:38.198Z,62.72
2023-02-09T08:32:39.128Z,75.40
2023-02-09T08:33:38.199Z,99.04
2023-02-09T08:34:38.130Z,104.17
2023-02-09T08:35:39.128Z,104.63
2023-02-09T08:36:39.152Z,104.90
2023-02-09T08:37:38.112Z,107.03
2023-02-09T08:38:38.100Z,110.64
2023-02-09T08:39:38.089Z,115.45
2023-02-09T08:40:38.068Z,124.75
2023-02-09T08:41:38.055Z,125.57
2023-02-09T08:42:38.051Z,128.79
2023-02-09T08:43:38.041Z,131.76
2023-02-09T08:44:38.017Z,130.16
2023-02-09T08:45:38.101Z,134.99
2023-02-09T08:46:38.079Z,135.55
2023-02-09T08:47:37.991Z,136.97
2023-02-09T08:48:37.935Z,139.54
2023-02-09T08:49:37.921Z,140.47
2023-02-09T08:50:37.874Z,143.18
2023-02-09T08:51:37.855Z,145.16
2023-02-09T08:53:37.794Z,145.51
2023-02-09T08:54:37.824Z,149.99
2023-02-09T08:55:37.766Z,151.49
2023-02-09T08:56:37.743Z,154.43
2023-02-09T08:57:43.958Z,156.90
2023-02-09T08:58:38.692Z,157.24
2023-02-09T08:59:37.672Z,158.32
2023-02-09T09:00:37.642Z,161.46
2023-02-09T09:01:37.613Z,162.96
2023-02-09T09:02:37.634Z,173.05
2023-02-09T09:03:37.609Z,173.93
2023-02-09T09:04:37.611Z,175.57
2023-02-09T09:05:37.518Z,179.95
2023-02-09T09:06:37.494Z,187.73
2023-02-09T09:07:37.503Z,191.70
2023-02-09T09:08:37.420Z,191.79
2023-02-09T09:09:37.406Z,192.29
2023-02-09T09:10:37.382Z,194.67
2023-02-09T09:11:37.364Z,197.21
2023-02-09T09:12:37.326Z,200.39
2023-02-09T09:13:37.327Z,199.76
2023-02-09T09:14:38.065Z,203.48
2023-02-09T09:15:37.253Z,202.88
2023-02-09T09:16:37.362Z,211.96
2023-02-09T09:17:37.210Z,206.24
2023-02-09T09:18:37.191Z,205.14
2023-02-09T09:19:37.177Z,202.28
2023-02-09T09:20:38.128Z,189.59
2023-02-09T09:21:37.128Z,179.76
2023-02-09T09:22:37.118Z,171.10
2023-02-09T09:23:37.093Z,161.60
2023-02-09T09:24:37.089Z,173.92
2023-02-09T09:25:37.060Z,181.03
2023-02-09T09:26:37.042Z,182.23
2023-02-09T09:27:37.012Z,182.52
2023-02-09T09:28:36.993Z,180.70
2023-02-09T09:29:36.989Z,178.83
2023-02-09T09:30:36.961Z,177.09
2023-02-09T09:31:37.163Z,178.84
2023-02-09T09:32:37.704Z,177.59
2023-02-09T09:33:36.891Z,175.50
2023-02-09T09:34:36.877Z,179.37
2023-02-09T09:35:36.853Z,176.22
2023-02-09T09:36:36.833Z,176.38
2023-02-09T09:37:36.802Z,176.45
2023-02-09T09:38:36.792Z,176.52
2023-02-09T09:39:36.774Z,175.47
2023-02-09T09:40:36.754Z,175.80
2023-02-09T09:41:37.647Z,175.94
2023-02-09T09:42:36.722Z,175.66
2023-02-09T09:43:36.684Z,175.64
2023-02-09T09:44:36.670Z,175.68
2023-02-09T09:45:36.646Z,173.91
2023-02-09T09:46:37.654Z,175.15
2023-02-09T09:47:37.155Z,174.50
2023-02-09T09:48:36.615Z,173.15
2023-02-09T09:49:36.620Z,174.57
2023-02-09T09:50:36.539Z,173.60
2023-02-09T09:51:36.519Z,172.88
2023-02-09T09:52:36.498Z,172.62
2023-02-09T09:53:36.484Z,172.96
2023-02-09T09:54:36.465Z,173.43
2023-02-09T09:55:36.436Z,173.66
2023-02-09T09:56:36.427Z,172.47
2023-02-09T09:57:36.460Z,172.59
2023-02-09T09:58:36.377Z,171.01
2023-02-09T09:59:36.357Z,170.69
2023-02-09T10:00:36.338Z,174.51
2023-02-09T10:01:36.349Z,172.27
2023-02-09T10:02:36.305Z,168.96
2023-02-09T10:03:36.304Z,172.04
2023-02-09T10:04:36.316Z,167.30
2023-02-09T10:05:36.249Z,169.55
2023-02-09T10:06:36.295Z,170.91
2023-02-09T10:07:36.223Z,168.57
2023-02-09T10:08:36.195Z,171.38
2023-02-09T10:09:36.184Z,172.26
2023-02-09T10:10:36.152Z,169.50
2023-02-09T10:11:36.125Z,171.14
2023-02-09T10:12:36.114Z,170.18
2023-02-09T10:13:36.118Z,169.63
2023-02-09T10:14:36.089Z,169.35
2023-02-09T10:15:36.066Z,168.57
2023-02-09T10:16:36.083Z,169.88
2023-02-09T10:17:36.030Z,171.60
2023-02-09T10:18:36.043Z,168.80
2023-02-09T10:19:35.990Z,168.76
2023-02-09T10:20:36.023Z,167.06
2023-02-09T10:21:36.102Z,167.99
2023-02-09T10:22:36.093Z,169.39
2023-02-09T10:23:36.099Z,168.95
2023-02-09T10:24:36.092Z,167.85
2023-02-09T10:25:36.077Z,167.01
2023-02-09T10:26:36.082Z,168.60
2023-02-09T10:27:36.065Z,168.43
2023-02-09T10:28:36.108Z,165.01
2023-02-09T10:29:36.051Z,166.77
2023-02-09T10:30:36.097Z,166.47
2023-02-09T10:31:36.721Z,165.20
2023-02-09T10:32:35.993Z,166.32
2023-02-09T10:33:35.980Z,166.46
2023-02-09T10:34:35.969Z,164.63
2023-02-09T10:35:35.962Z,165.74
2023-02-09T10:36:35.942Z,165.30
2023-02-09T10:37:35.948Z,165.57
2023-02-09T10:38:35.929Z,166.06
2023-02-09T10:39:35.985Z,166.52
2023-02-09T10:40:35.916Z,164.91
2023-02-09T10:41:36.165Z,161.53
2023-02-09T10:42:35.950Z,164.44
2023-02-09T10:43:35.937Z,163.55
2023-02-09T10:44:35.928Z,162.01
2023-02-09T10:45:35.916Z,160.33
2023-02-09T10:46:35.925Z,159.47
2023-02-09T10:47:35.905Z,163.77
2023-02-09T10:48:35.906Z,161.75
2023-02-09T10:49:35.896Z,161.36
2023-02-09T10:50:35.885Z,159.67
2023-02-09T10:51:35.878Z,160.90
2023-02-09T10:52:35.853Z,160.76
2023-02-09T10:53:35.868Z,160.66
2023-02-09T10:54:35.827Z,158.38
2023-02-09T10:55:35.839Z,159.56
2023-02-09T10:56:35.816Z,158.81
2023-02-09T10:57:35.802Z,159.78
2023-02-09T10:58:35.796Z,156.89
2023-02-09T10:59:35.762Z,158.83
2023-02-09T11:00:35.756Z,157.16
2023-02-09T11:01:35.848Z,158.84
2023-02-09T11:02:35.771Z,161.18
2023-02-09T11:03:35.769Z,157.30
2023-02-09T11:04:35.796Z,156.65
2023-02-09T11:05:35.772Z,157.19
2023-02-09T11:06:35.742Z,156.99
2023-02-09T11:07:35.711Z,153.09
2023-02-09T11:08:35.701Z,156.58
2023-02-09T11:09:35.683Z,157.92
2023-02-09T11:10:35.674Z,155.87
2023-02-09T11:11:35.693Z,153.96
2023-02-09T11:12:35.733Z,156.50
2023-02-09T11:13:35.679Z,161.82
2023-02-09T11:14:35.712Z,157.92
2023-02-09T11:15:35.791Z,157.34
2023-02-09T11:16:35.751Z,158.42
2023-02-09T11:17:35.770Z,161.27
2023-02-09T11:18:35.823Z,160.97
2023-02-09T11:19:35.864Z,164.29
2023-02-09T11:20:35.915Z,167.38
2023-02-09T11:21:36.595Z,167.17
2023-02-09T11:22:35.996Z,169.11
2023-02-09T11:23:36.053Z,171.04
2023-02-09T11:24:36.078Z,172.48
2023-02-09T11:25:36.111Z,173.40
2023-02-09T11:26:36.177Z,169.95
2023-02-09T11:27:36.200Z,142.93
2023-02-09T11:28:36.212Z,142.64
2023-02-09T11:29:36.188Z,174.28
2023-02-09T11:30:36.202Z,171.64
2023-02-09T11:31:36.192Z,152.25
2023-02-09T11:32:36.144Z,160.63
2023-02-09T11:33:36.132Z,151.67
2023-02-09T11:34:36.166Z,148.80
2023-02-09T11:35:36.147Z,154.27
2023-02-09T11:36:36.140Z,157.33
2023-02-09T11:37:36.189Z,159.22
2023-02-09T11:38:36.211Z,157.55
2023-02-09T11:39:38.273Z,159.08
2023-02-09T11:40:36.308Z,162.47
2023-02-09T11:41:36.323Z,161.67
2023-02-09T11:42:36.356Z,165.34
2023-02-09T11:43:36.442Z,166.68
2023-02-09T11:44:36.399Z,171.16
2023-02-09T11:45:36.568Z,171.13
2023-02-09T11:46:36.524Z,173.54
2023-02-09T11:47:36.538Z,177.26
2023-02-09T11:48:36.552Z,179.88
2023-02-09T11:49:36.594Z,181.14
2023-02-09T11:50:36.622Z,185.71
2023-02-09T11:51:36.649Z,187.46
2023-02-09T11:52:36.686Z,190.18
2023-02-09T11:53:37.616Z,192.94
2023-02-09T11:54:36.739Z,195.36
2023-02-09T11:55:36.771Z,198.00
2023-02-09T11:56:36.809Z,200.30
2023-02-09T11:57:36.825Z,204.27
2023-02-09T11:58:36.860Z,207.66
2023-02-09T12:27:37.939Z,215.58
2023-02-09T12:32:38.032Z,215.52
2023-02-09T12:33:38.070Z,213.16
2023-02-09T12:34:38.079Z,211.62
2023-02-09T12:35:38.090Z,209.25
2023-02-09T12:36:38.056Z,208.44
2023-02-09T12:37:38.051Z,206.06
2023-02-09T12:38:38.035Z,210.93
2023-02-09T12:39:38.022Z,196.97
2023-02-09T12:40:38.021Z,187.70
2023-02-09T12:41:40.034Z,186.04
2023-02-09T12:42:37.952Z,191.87
2023-02-09T12:43:37.928Z,192.22
2023-02-09T12:44:37.908Z,191.95
2023-02-09T12:45:37.938Z,188.87
2023-02-09T12:46:37.887Z,185.82
2023-02-09T12:47:37.849Z,185.03
2023-02-09T12:48:37.824Z,184.08
2023-02-09T12:49:37.795Z,183.18
2023-02-09T12:50:37.776Z,182.20
2023-02-09T12:51:37.769Z,181.43
2023-02-09T12:52:37.754Z,179.64
2023-02-09T12:53:37.787Z,179.39
2023-02-09T12:54:37.701Z,178.73
2023-02-09T12:55:37.676Z,179.69
2023-02-09T12:56:37.648Z,178.31
2023-02-09T12:57:37.639Z,176.82
2023-02-09T12:58:37.616Z,178.69
2023-02-09T12:59:37.586Z,178.14
2023-02-09T13:00:37.720Z,176.64
2023-02-09T13:01:37.527Z,177.28
2023-02-09T13:02:37.514Z,175.34
2023-02-09T13:03:37.557Z,172.98
2023-02-09T13:04:37.450Z,172.93
2023-02-09T13:05:37.434Z,174.72
2023-02-09T13:06:37.406Z,173.10
2023-02-09T13:07:37.388Z,172.64
2023-02-09T13:08:37.348Z,174.16
2023-02-09T13:09:37.318Z,169.37
2023-02-09T13:10:37.296Z,168.37
2023-02-09T13:11:37.269Z,174.18
2023-02-09T13:12:37.258Z,170.55
2023-02-09T13:13:38.263Z,172.54
2023-02-09T13:14:37.232Z,169.98
2023-02-09T13:15:37.214Z,169.60
2023-02-09T13:16:37.218Z,169.03
2023-02-09T13:17:37.176Z,168.44
2023-02-09T13:18:37.152Z,167.81
2023-02-09T13:19:47.424Z,168.53
2023-02-09T13:21:37.102Z,168.75
2023-02-09T13:22:37.073Z,168.63
2023-02-09T13:23:37.065Z,167.29
2023-02-09T13:24:37.043Z,165.86
2023-02-09T13:25:37.029Z,163.66
2023-02-09T13:26:37.012Z,164.98
2023-02-09T13:27:37.000Z,164.16
2023-02-09T13:28:36.987Z,164.83
2023-02-09T13:29:36.961Z,163.70
2023-02-09T14:04:36.424Z,158.48
2023-02-09T14:05:36.402Z,157.10
2023-02-09T14:12:36.234Z,156.13
2023-02-09T14:17:36.223Z,154.31
2023-02-09T14:38:35.699Z,150.06
2023-02-09T14:39:35.704Z,151.39
2023-02-09T14:40:35.694Z,151.78
2023-02-09T14:41:35.703Z,151.76
2023-02-09T14:42:35.697Z,149.97
2023-02-09T14:43:35.698Z,148.64
2023-02-09T14:44:35.702Z,150.11
2023-02-09T14:45:35.686Z,152.88
2023-02-09T14:46:35.735Z,148.22
2023-02-09T14:47:35.678Z,149.63
2023-02-09T14:48:35.690Z,148.88
2023-02-09T14:49:35.673Z,150.03
2023-02-09T14:50:35.680Z,151.81
2023-02-09T14:51:35.655Z,146.76
2023-02-09T14:52:35.665Z,149.34
2023-02-09T14:53:35.653Z,151.07
2023-02-09T14:54:35.656Z,150.64
2023-02-09T14:55:35.654Z,149.50
2023-02-09T14:56:35.642Z,149.96
2023-02-09T14:57:35.634Z,146.82
2023-02-09T14:58:35.640Z,148.16
2023-02-09T14:59:35.638Z,149.47
2023-02-09T15:00:35.636Z,147.39
2023-02-09T15:01:35.677Z,149.13
2023-02-09T15:02:35.677Z,149.81
2023-02-09T15:03:35.627Z,147.60
2023-02-09T15:04:35.635Z,148.61
2023-02-09T15:05:35.634Z,147.25
2023-02-09T15:06:35.637Z,147.97
2023-02-09T15:07:35.637Z,145.99
2023-02-09T15:08:35.658Z,147.10
2023-02-09T15:09:35.641Z,142.29
2023-02-09T15:10:35.638Z,148.92
2023-02-09T15:11:36.429Z,149.24
2023-02-09T15:12:35.740Z,147.08
2023-02-09T15:13:35.734Z,148.78
2023-02-09T15:14:35.734Z,149.01
2023-02-09T15:15:35.762Z,147.75
2023-02-09T15:16:35.739Z,147.14
2023-02-09T15:17:35.752Z,143.26
2023-02-09T15:18:35.749Z,145.96
2023-02-09T15:19:35.750Z,144.31
2023-02-09T15:20:35.752Z,145.30
2023-02-09T15:21:35.753Z,145.07
2023-02-09T15:22:35.743Z,143.90
2023-02-09T15:23:35.762Z,146.63
2023-02-09T15:24:35.796Z,144.55
2023-02-09T15:25:35.795Z,145.94
2023-02-09T15:26:35.787Z,141.52
2023-02-09T15:27:35.799Z,143.03
2023-02-09T15:28:35.882Z,142.25
2023-02-09T15:29:35.780Z,145.12
2023-02-09T15:30:35.791Z,145.64
2023-02-09T15:31:35.872Z,144.68
2023-02-09T15:32:35.792Z,143.10
2023-02-09T15:33:35.824Z,141.53
2023-02-09T15:34:35.802Z,142.96
2023-02-09T15:35:35.802Z,142.61
2023-02-09T15:36:35.798Z,143.41
2023-02-09T15:37:35.817Z,142.04
2023-02-09T15:38:35.804Z,140.46
2023-02-09T15:39:35.810Z,142.71
2023-02-09T15:40:35.810Z,140.72
2023-02-09T15:41:36.400Z,144.38
2023-02-09T15:42:35.822Z,140.30
2023-02-09T15:43:35.827Z,138.48
2023-02-09T15:44:35.835Z,141.70
2023-02-09T15:45:35.849Z,140.65
2023-02-09T15:46:35.940Z,140.35
2023-02-09T15:47:35.847Z,143.16
2023-02-09T15:48:35.858Z,137.21
2023-02-09T15:49:35.857Z,140.96
2023-02-09T15:50:35.874Z,138.65
2023-02-09T15:51:35.883Z,140.59
2023-02-09T15:52:35.891Z,138.04
2023-02-09T15:53:35.889Z,139.85
2023-02-09T15:54:35.897Z,140.37
2023-02-09T15:55:35.896Z,140.27
2023-02-09T15:56:35.909Z,137.02
2023-02-09T15:57:35.921Z,136.97
2023-02-09T15:58:35.957Z,138.64
2023-02-09T15:59:35.986Z,136.66
2023-02-09T16:00:35.965Z,136.42
2023-02-09T16:01:36.005Z,135.30
2023-02-09T16:02:36.053Z,134.89
2023-02-09T16:03:36.001Z,137.22
2023-02-09T16:04:36.024Z,136.54
2023-02-09T16:05:36.038Z,135.60
2023-02-09T16:06:36.054Z,135.31
2023-02-09T16:07:36.083Z,134.55
2023-02-09T16:08:36.101Z,135.35
2023-02-09T16:09:36.158Z,138.38
2023-02-09T16:10:36.156Z,136.26
2023-02-09T16:11:36.159Z,134.96
2023-02-09T16:12:36.169Z,134.03
2023-02-09T16:13:36.203Z,134.66
2023-02-09T16:14:36.212Z,136.72
2023-02-09T16:15:36.243Z,137.23
2023-02-09T16:16:36.320Z,137.04
2023-02-09T16:17:36.285Z,136.21
2023-02-09T16:18:36.298Z,137.77
2023-02-09T16:19:36.336Z,134.84
2023-02-09T16:20:36.345Z,137.24
2023-02-09T16:21:36.401Z,136.11
2023-02-09T16:22:36.390Z,137.81
2023-02-09T16:23:36.457Z,139.37
2023-02-09T16:24:36.452Z,136.61
2023-02-09T16:25:36.498Z,139.03
2023-02-09T16:26:36.471Z,136.07
2023-02-09T16:27:36.506Z,136.72
2023-02-09T16:28:36.538Z,135.76
2023-02-09T16:29:36.546Z,135.26
2023-02-09T16:30:36.552Z,136.67
2023-02-09T16:31:36.663Z,137.26
2023-02-09T16:32:36.606Z,136.49
2023-02-09T16:33:36.614Z,136.70
2023-02-09T16:34:36.639Z,133.43
2023-02-09T16:35:36.661Z,136.90
2023-02-09T16:36:36.695Z,133.19
2023-02-09T16:37:36.710Z,134.85
2023-02-09T16:38:36.743Z,133.46
2023-02-09T16:39:36.774Z,135.18
2023-02-09T16:40:36.801Z,131.88
2023-02-09T16:41:36.842Z,133.77
2023-02-09T16:42:36.846Z,133.66
2023-02-09T16:43:36.873Z,136.02
2023-02-09T16:44:36.898Z,135.38
2023-02-09T16:45:36.923Z,129.38
2023-02-09T16:46:36.998Z,131.25
2023-02-09T16:47:36.991Z,133.70
2023-02-09T16:48:37.006Z,131.11
2023-02-09T16:49:37.058Z,131.33
2023-02-09T16:50:37.067Z,133.91
2023-02-09T16:51:37.103Z,131.27
2023-02-09T16:52:37.145Z,132.99
2023-02-09T16:53:37.183Z,131.70
2023-02-09T16:54:37.229Z,129.90
2023-02-09T16:55:37.228Z,130.67
2023-02-09T16:56:46.022Z,131.87
2023-02-09T16:57:38.254Z,132.03
2023-02-09T16:58:37.248Z,132.42
2023-02-09T16:59:37.247Z,132.19
2023-02-09T17:00:37.273Z,131.01
2023-02-09T17:01:37.224Z,134.10
2023-02-09T17:02:37.213Z,133.72
2023-02-09T17:03:37.190Z,131.55
2023-02-09T17:04:37.175Z,130.65
2023-02-09T17:05:37.181Z,133.22
2023-02-09T17:06:37.155Z,130.78
2023-02-09T17:07:48.753Z,130.95
2023-02-09T17:08:38.127Z,131.13
2023-02-09T17:09:37.105Z,131.15
2023-02-09T17:10:37.110Z,132.37
2023-02-09T17:11:37.073Z,128.54
2023-02-09T17:12:37.059Z,129.65
2023-02-09T17:13:37.055Z,131.98
2023-02-09T17:14:37.036Z,129.01
2023-02-09T17:15:37.037Z,130.86
2023-02-09T17:16:37.080Z,127.85
2023-02-09T17:17:37.034Z,128.02
2023-02-09T17:18:36.992Z,127.39
2023-02-09T17:19:47.185Z,129.21
2023-02-09T17:20:37.976Z,129.35
2023-02-09T17:21:36.973Z,129.81
2023-02-09T17:22:36.955Z,126.02
2023-02-09T17:23:36.960Z,129.58
2023-02-09T17:24:36.946Z,129.55
2023-02-09T17:25:36.942Z,126.71
2023-02-09T17:26:36.932Z,127.64
2023-02-09T17:27:36.942Z,126.34
2023-02-09T17:28:36.964Z,129.77
2023-02-09T17:29:36.897Z,128.56
2023-02-09T17:30:36.883Z,126.89
2023-02-09T17:31:51.811Z,128.60
2023-02-09T17:32:37.854Z,128.68
2023-02-09T17:33:36.850Z,128.35
2023-02-09T17:34:36.854Z,127.73
2023-02-09T17:36:23.664Z,127.97
2023-02-09T17:36:37.821Z,128.74
2023-02-09T17:37:36.807Z,128.75
2023-02-09T17:38:36.802Z,128.96
2023-02-09T17:39:36.789Z,127.94
2023-02-09T17:40:36.772Z,126.74
2023-02-09T17:41:36.765Z,128.13
2023-02-09T17:42:36.762Z,124.27
2023-02-09T17:43:36.751Z,125.32
2023-02-09T17:44:46.032Z,125.42
2023-02-09T17:45:37.890Z,125.69
2023-02-09T17:46:36.768Z,125.81
2023-02-09T17:47:36.703Z,126.10
2023-02-09T17:48:36.682Z,126.08
2023-02-09T17:49:36.672Z,127.32
2023-02-09T17:50:36.664Z,124.99
2023-02-09T17:51:36.648Z,125.05
2023-02-09T17:52:36.667Z,126.88
2023-02-09T17:53:36.651Z,119.78
2023-02-09T17:54:36.627Z,124.19
2023-02-09T17:55:36.642Z,124.82
2023-02-09T17:56:36.627Z,121.61
2023-02-09T17:57:36.610Z,122.66
2023-02-09T17:58:36.606Z,124.80
2023-02-09T17:59:36.599Z,121.82
2023-02-09T18:00:36.595Z,125.84
2023-02-09T18:01:36.677Z,122.93
2023-02-09T18:02:36.668Z,118.96
2023-02-09T18:03:36.666Z,122.07
2023-02-09T18:04:36.695Z,124.84
2023-02-09T18:05:36.729Z,123.21
2023-02-09T18:06:36.757Z,121.07
2023-02-09T18:07:36.779Z,122.29
2023-02-09T18:08:36.809Z,120.62
2023-02-09T18:09:36.841Z,123.52
2023-02-09T18:10:36.856Z,121.95
2023-02-09T18:11:36.893Z,122.54
2023-02-09T18:12:36.923Z,120.74
2023-02-09T18:13:36.955Z,120.71
2023-02-09T18:14:36.986Z,120.69
2023-02-09T18:15:37.022Z,122.69
2023-02-09T18:16:37.125Z,118.29
2023-02-09T18:17:37.074Z,121.16
2023-02-09T18:18:37.106Z,121.51
2023-02-09T18:19:37.208Z,120.03
2023-02-09T18:20:37.172Z,120.43
2023-02-09T18:21:37.202Z,123.04
2023-02-09T18:22:37.223Z,121.45
2023-02-09T18:23:37.267Z,120.68
2023-02-09T18:24:37.294Z,122.40
2023-02-09T18:25:37.323Z,119.81
2023-02-09T18:26:37.365Z,121.66
2023-02-09T18:27:37.402Z,121.91
2023-02-09T18:28:37.419Z,120.59
2023-02-09T18:29:37.456Z,121.55
2023-02-09T18:30:37.512Z,119.96
2023-02-09T18:31:37.836Z,120.94
2023-02-09T18:32:37.549Z,117.81
2023-02-09T18:33:37.572Z,116.95
2023-02-09T18:34:37.612Z,119.57
2023-02-09T18:35:37.649Z,120.43
2023-02-09T18:36:37.699Z,120.03
2023-02-09T18:37:37.705Z,116.24
2023-02-09T18:38:37.745Z,116.50
2023-02-09T18:39:37.773Z,116.90
2023-02-09T18:40:37.812Z,118.74
2023-02-09T18:41:37.840Z,116.90
2023-02-09T18:42:37.874Z,119.06
2023-02-09T18:43:37.922Z,116.29
2023-02-09T18:44:37.950Z,115.49
2023-02-09T18:45:37.982Z,113.82
2023-02-09T18:46:38.174Z,118.07
2023-02-09T18:47:38.047Z,115.06
2023-02-09T18:48:38.087Z,115.74
2023-02-09T18:49:38.131Z,116.65
2023-02-09T18:50:38.171Z,116.79
2023-02-09T18:51:38.201Z,119.20
2023-02-09T18:52:38.246Z,115.96
2023-02-09T18:53:38.266Z,117.54
2023-02-09T18:54:38.289Z,117.80
2023-02-09T18:55:38.317Z,117.09
2023-02-09T18:56:38.354Z,116.68
2023-02-09T18:57:38.397Z,114.07
2023-02-09T18:58:38.423Z,115.30
2023-02-09T18:59:38.451Z,117.33
2023-02-09T19:00:38.502Z,115.22
2023-02-09T19:01:38.621Z,114.76
2023-02-09T19:02:38.610Z,114.77
2023-02-09T19:03:38.610Z,116.00
2023-02-09T19:04:38.653Z,115.42